Terminal Aerodrome Forecast
Issued by NWS

Home | Current Version | Previous Version | Text Only | Print | Product List | Glossary On
Versions: 1 2 3 4 5 6 7 8 9 10 11 12 13 14 15 16 17 18 19
000
FTUS43 KMQT 302321
TAFCMX
TAF
KCMX 302321Z 3100/3124 30012G18KT P6SM SKC
     FM310200 03005KT P6SM FEW200
     FM311200 10010KT P6SM BKN120
     FM311500 11015G21KT P6SM BKN100
     FM311800 11015G21KT P6SM VCSH OVC100=

USA.gov is the U.S. government's official web portal to all federal, state and local government web resources and services.